Time;durP1;ratioP1;P1;durP2;ratioP2;P2;SDS_P1;SDS_P2;PMS_P1;PMS_P2;Temp;Humidity;BMP_temperature;BMP_pressure;BME280_temperature;BME280_humidity;BME280_pressure;Samples;Min_cycle;Max_cycle;Signal;HPM_P1;HPM_P2
2022/11/26 00:01:22;;;;;;;5.37;3.37;;;;;;;;;;5047086;28;20206;-63
2022/11/26 00:03:52;;;;;;;6.37;2.90;;;;;;;;;;5047853;28;20233;-62
2022/11/26 00:06:30;;;;;;;4.30;3.63;;;;;;;;;;5052658;28;20205;-63
2022/11/26 00:08:58;;;;;;;4.03;3.20;;;;;;;;;;5059506;28;20292;-63
2022/11/26 00:11:25;;;;;;;6.27;4.47;;;;;;;;;;5057655;28;20259;-63
2022/11/26 00:13:52;;;;;;;10.87;7.17;;;;;;;;;;5042244;28;20268;-63
2022/11/26 00:16:20;;;;;;;10.87;5.93;;;;;;;;;;5045419;28;20213;-63
2022/11/26 00:18:47;;;;;;;8.43;5.00;;;;;;;;;;5036887;28;20202;-63
2022/11/26 00:21:20;;;;;;;8.73;4.90;;;;;;;;;;5029802;28;20344;-63
2022/11/26 00:23:48;;;;;;;10.77;5.13;;;;;;;;;;5052863;28;20260;-64
2022/11/26 00:26:16;;;;;;;6.53;4.27;;;;;;;;;;5037667;28;20197;-63
2022/11/26 00:28:59;;;;;;;9.57;4.80;;;;;;;;;;5041642;28;20631;-63
2022/11/26 00:31:28;;;;;;;12.30;5.10;;;;;;;;;;5033819;28;20317;-63
2022/11/26 00:33:56;;;;;;;9.50;5.07;;;;;;;;;;5032900;28;20234;-65
2022/11/26 00:36:25;;;;;;;15.33;8.67;;;;;;;;;;5039330;28;20233;-63
2022/11/26 00:38:55;;;;;;;13.70;9.83;;;;;;;;;;5041560;28;20263;-63
2022/11/26 00:41:23;;;;;;;14.70;7.77;;;;;;;;;;5034655;28;20297;-64
2022/11/26 00:43:50;;;;;;;9.63;6.50;;;;;;;;;;5054064;28;20257;-62
2022/11/26 00:46:19;;;;;;;10.50;5.93;;;;;;;;;;5046209;28;20739;-64
2022/11/26 00:48:47;;;;;;;10.47;5.77;;;;;;;;;;5038762;28;20677;-64
2022/11/26 00:51:20;;;;;;;11.47;4.97;;;;;;;;;;5031066;28;20216;-63
2022/11/26 00:53:47;;;;;;;9.40;4.53;;;;;;;;;;5029451;28;20283;-63
2022/11/26 00:56:19;;;;;;;8.03;4.00;;;;;;;;;;5038531;28;20414;-63
2022/11/26 00:58:47;;;;;;;9.23;3.57;;;;;;;;;;5038042;28;20259;-63
2022/11/26 01:01:17;;;;;;;11.90;4.07;;;;;;;;;;5025134;28;20209;-63
2022/11/26 01:03:44;;;;;;;9.57;4.07;;;;;;;;;;5040753;28;20785;-63
2022/11/26 01:06:14;;;;;;;8.40;3.70;;;;;;;;;;5046450;28;20610;-63
2022/11/26 01:08:41;;;;;;;8.07;4.00;;;;;;;;;;5041316;28;20301;-63
2022/11/26 01:11:11;;;;;;;7.83;3.50;;;;;;;;;;5029682;28;20305;-62
2022/11/26 01:13:38;;;;;;;8.73;3.77;;;;;;;;;;5043406;28;20747;-63
2022/11/26 01:16:14;;;;;;;7.10;3.97;;;;;;;;;;5031764;28;20244;-63
2022/11/26 01:18:42;;;;;;;9.07;4.03;;;;;;;;;;5061460;28;20205;-63
2022/11/26 01:21:12;;;;;;;11.53;3.80;;;;;;;;;;5036729;28;20269;-62
2022/11/26 01:23:39;;;;;;;5.70;3.53;;;;;;;;;;5050987;28;20342;-63
2022/11/26 01:26:12;;;;;;;6.40;3.30;;;;;;;;;;5040860;28;20296;-63
2022/11/26 01:28:39;;;;;;;6.40;3.43;;;;;;;;;;5034990;28;20202;-64
2022/11/26 01:31:12;;;;;;;9.10;3.47;;;;;;;;;;5030614;28;20306;-63
2022/11/26 01:33:39;;;;;;;7.30;3.60;;;;;;;;;;5037864;28;20225;-63
2022/11/26 01:36:33;;;;;;;7.40;3.67;;;;;;;;;;5042458;28;20316;-62
2022/11/26 01:39:03;;;;;;;6.47;2.80;;;;;;;;;;5035616;28;20260;-63
2022/11/26 01:41:46;;;;;;;9.53;3.17;;;;;;;;;;5042363;28;20210;-63
2022/11/26 01:44:19;;;;;;;7.40;3.03;;;;;;;;;;5052607;28;20320;-61
2022/11/26 01:46:47;;;;;;;9.83;3.50;;;;;;;;;;5026872;28;20301;-64
2022/11/26 01:49:23;;;;;;;7.17;3.40;;;;;;;;;;5027852;28;20240;-60
2022/11/26 01:52:00;;;;;;;10.50;3.40;;;;;;;;;;5027377;28;20220;-63
2022/11/26 01:54:27;;;;;;;5.10;2.87;;;;;;;;;;5040335;28;20209;-63
2022/11/26 01:56:56;;;;;;;10.03;4.17;;;;;;;;;;5031872;28;22007;-62
2022/11/26 01:59:23;;;;;;;9.17;3.57;;;;;;;;;;5038757;28;20300;-62
2022/11/26 02:01:52;;;;;;;8.30;3.40;;;;;;;;;;5031712;28;20222;-62
2022/11/26 02:04:39;;;;;;;5.37;3.73;;;;;;;;;;5034498;28;21536;-62
2022/11/26 02:07:07;;;;;;;8.40;3.20;;;;;;;;;;5036990;28;20551;-62
2022/11/26 02:09:34;;;;;;;6.87;3.77;;;;;;;;;;5050783;28;20260;-62
2022/11/26 02:12:02;;;;;;;11.83;3.63;;;;;;;;;;5044274;28;20257;-62
2022/11/26 02:14:31;;;;;;;14.10;4.07;;;;;;;;;;5033808;28;20292;-64
2022/11/26 02:16:59;;;;;;;8.60;3.77;;;;;;;;;;5052629;28;20766;-62
2022/11/26 02:19:29;;;;;;;11.50;4.43;;;;;;;;;;5039853;28;20206;-62
2022/11/26 02:22:12;;;;;;;10.57;3.97;;;;;;;;;;5027636;28;20284;-62
2022/11/26 02:24:50;;;;;;;9.53;3.40;;;;;;;;;;5038151;28;20316;-62
2022/11/26 02:27:38;;;;;;;6.50;3.40;;;;;;;;;;5046223;28;20301;-61
2022/11/26 02:30:07;;;;;;;14.03;6.57;;;;;;;;;;5032181;28;20225;-63
2022/11/26 02:32:50;;;;;;;7.37;4.13;;;;;;;;;;5023355;28;20326;-63
2022/11/26 02:35:22;;;;;;;9.07;3.60;;;;;;;;;;5044287;28;20348;-62
2022/11/26 02:37:57;;;;;;;5.13;3.10;;;;;;;;;;5045080;28;20240;-62
2022/11/26 02:40:25;;;;;;;29.80;18.13;;;;;;;;;;5037683;28;20292;-61
2022/11/26 02:42:52;;;;;;;9.73;5.97;;;;;;;;;;5029239;28;20243;-61
2022/11/26 02:45:23;;;;;;;8.50;3.20;;;;;;;;;;5034015;28;20245;-63
2022/11/26 02:47:52;;;;;;;7.97;2.77;;;;;;;;;;5028863;28;20575;-63
2022/11/26 02:50:22;;;;;;;5.17;2.33;;;;;;;;;;5030944;28;20837;-62
2022/11/26 02:52:50;;;;;;;6.70;2.40;;;;;;;;;;5032583;28;21054;-62
2022/11/26 02:55:19;;;;;;;6.93;2.77;;;;;;;;;;5030843;28;20216;-62
2022/11/26 02:57:48;;;;;;;9.27;2.80;;;;;;;;;;5025546;28;20312;-61
2022/11/26 03:00:16;;;;;;;6.57;2.63;;;;;;;;;;5025840;28;20307;-61
2022/11/26 03:03:02;;;;;;;5.67;3.03;;;;;;;;;;5032292;28;20324;-63
2022/11/26 03:05:34;;;;;;;7.93;2.77;;;;;;;;;;5055672;28;20314;-63
2022/11/26 03:08:03;;;;;;;7.50;3.00;;;;;;;;;;5036739;28;20260;-64
2022/11/26 03:10:31;;;;;;;10.17;2.93;;;;;;;;;;5040452;28;20201;-62
2022/11/26 03:12:58;;;;;;;12.40;2.97;;;;;;;;;;5039055;28;20225;-64
2022/11/26 03:15:26;;;;;;;8.47;3.50;;;;;;;;;;5043426;28;20209;-63
2022/11/26 03:17:53;;;;;;;5.60;3.13;;;;;;;;;;5034112;28;20592;-64
2022/11/26 03:20:21;;;;;;;6.87;3.27;;;;;;;;;;5054508;28;20325;-61
2022/11/26 03:22:48;;;;;;;9.73;3.67;;;;;;;;;;5051145;28;21075;-62
2022/11/26 03:25:15;;;;;;;8.23;3.03;;;;;;;;;;5038746;28;20320;-62
2022/11/26 03:27:42;;;;;;;11.57;3.60;;;;;;;;;;5036253;28;21529;-61
2022/11/26 03:30:10;;;;;;;7.40;3.10;;;;;;;;;;5051368;28;20221;-63
2022/11/26 03:32:37;;;;;;;8.00;3.20;;;;;;;;;;5035735;28;20334;-63
2022/11/26 03:35:05;;;;;;;8.03;3.23;;;;;;;;;;5038171;28;20222;-61
2022/11/26 03:37:32;;;;;;;7.10;2.90;;;;;;;;;;5016882;28;20236;-63
2022/11/26 03:40:00;;;;;;;5.83;2.53;;;;;;;;;;5047645;28;20213;-64
2022/11/26 03:42:27;;;;;;;6.73;2.20;;;;;;;;;;5034825;28;20374;-62
2022/11/26 03:44:55;;;;;;;5.63;2.60;;;;;;;;;;5035379;28;20225;-61
2022/11/26 03:47:22;;;;;;;5.17;2.30;;;;;;;;;;5044710;28;20667;-61
2022/11/26 03:49:51;;;;;;;4.83;2.30;;;;;;;;;;5036591;28;20288;-62
2022/11/26 03:52:18;;;;;;;3.33;2.10;;;;;;;;;;5036898;28;21291;-64
2022/11/26 03:54:46;;;;;;;6.30;2.10;;;;;;;;;;5033676;28;20233;-61
2022/11/26 03:57:14;;;;;;;6.20;2.47;;;;;;;;;;5055562;28;20305;-62
2022/11/26 03:59:41;;;;;;;2.77;1.90;;;;;;;;;;5051829;28;21963;-61
2022/11/26 04:02:08;;;;;;;2.00;1.90;;;;;;;;;;5038007;28;20668;-62
2022/11/26 04:04:36;;;;;;;4.70;1.87;;;;;;;;;;5042815;28;20914;-62
2022/11/26 04:07:04;;;;;;;5.30;2.17;;;;;;;;;;5028717;28;20212;-62
2022/11/26 04:09:31;;;;;;;3.33;2.10;;;;;;;;;;5036434;28;20231;-62
2022/11/26 04:11:59;;;;;;;3.17;1.87;;;;;;;;;;5037339;28;20237;-62
2022/11/26 04:14:26;;;;;;;4.20;2.40;;;;;;;;;;5060379;28;20241;-61
2022/11/26 04:16:53;;;;;;;4.30;1.90;;;;;;;;;;5060418;28;20304;-62
2022/11/26 04:19:21;;;;;;;3.73;2.50;;;;;;;;;;5049542;28;20286;-62
2022/11/26 04:21:48;;;;;;;2.80;1.90;;;;;;;;;;5034704;28;20271;-62
2022/11/26 04:24:15;;;;;;;4.40;1.97;;;;;;;;;;5038622;28;20325;-61
2022/11/26 04:26:43;;;;;;;4.50;2.03;;;;;;;;;;5040703;28;20198;-63
2022/11/26 04:29:10;;;;;;;3.83;2.13;;;;;;;;;;5060332;28;20932;-62
2022/11/26 04:31:37;;;;;;;5.57;2.50;;;;;;;;;;5057349;28;20225;-62
2022/11/26 04:34:05;;;;;;;5.57;2.37;;;;;;;;;;5041355;28;20283;-61
2022/11/26 04:36:32;;;;;;;6.07;2.60;;;;;;;;;;5036749;28;20327;-63
2022/11/26 04:38:59;;;;;;;4.67;2.67;;;;;;;;;;5034586;28;20297;-64
2022/11/26 04:41:27;;;;;;;4.37;2.70;;;;;;;;;;5048501;28;20266;-62
2022/11/26 04:43:54;;;;;;;16.53;10.33;;;;;;;;;;5051026;28;20810;-62
2022/11/26 04:46:21;;;;;;;10.97;6.50;;;;;;;;;;5045487;28;20197;-64
2022/11/26 04:48:49;;;;;;;7.90;2.87;;;;;;;;;;5045136;28;20243;-63
2022/11/26 04:51:16;;;;;;;8.27;3.20;;;;;;;;;;5035704;28;20778;-62
2022/11/26 04:53:43;;;;;;;5.03;2.90;;;;;;;;;;5037209;28;20303;-64
2022/11/26 04:56:10;;;;;;;8.27;2.87;;;;;;;;;;5034684;28;20205;-63
2022/11/26 04:58:38;;;;;;;8.67;3.03;;;;;;;;;;5037235;28;20201;-64
2022/11/26 05:01:05;;;;;;;6.87;2.77;;;;;;;;;;5035107;28;20204;-63
2022/11/26 05:03:35;;;;;;;5.27;3.10;;;;;;;;;;5054782;28;20661;-63
2022/11/26 05:06:02;;;;;;;8.30;3.10;;;;;;;;;;5061210;28;20308;-62
2022/11/26 05:08:30;;;;;;;8.43;2.70;;;;;;;;;;5047615;28;20259;-63
2022/11/26 05:10:59;;;;;;;8.50;2.90;;;;;;;;;;5035069;28;20255;-63
2022/11/26 05:13:27;;;;;;;7.57;3.10;;;;;;;;;;5034066;28;20297;-64
2022/11/26 05:15:54;;;;;;;7.10;3.30;;;;;;;;;;5039499;28;20208;-64
2022/11/26 05:18:21;;;;;;;7.70;2.90;;;;;;;;;;5035191;28;20674;-63
2022/11/26 05:20:49;;;;;;;6.17;3.00;;;;;;;;;;5063014;28;20291;-64
2022/11/26 05:23:16;;;;;;;6.90;3.10;;;;;;;;;;5048461;28;20276;-64
2022/11/26 05:25:43;;;;;;;7.53;3.23;;;;;;;;;;5031636;28;20854;-64
2022/11/26 05:28:11;;;;;;;7.57;2.83;;;;;;;;;;5056881;28;20252;-64
2022/11/26 05:30:38;;;;;;;10.00;3.30;;;;;;;;;;5042197;28;20758;-62
2022/11/26 05:33:05;;;;;;;7.63;3.03;;;;;;;;;;5053739;28;20221;-63
2022/11/26 05:35:33;;;;;;;6.40;2.90;;;;;;;;;;5057028;28;21375;-63
2022/11/26 05:38:00;;;;;;;10.50;3.33;;;;;;;;;;5037305;28;20600;-64
2022/11/26 05:40:27;;;;;;;8.50;3.63;;;;;;;;;;5037052;28;20300;-63
2022/11/26 05:42:55;;;;;;;8.57;3.17;;;;;;;;;;5057468;28;20229;-63
2022/11/26 05:45:22;;;;;;;10.83;3.70;;;;;;;;;;5056026;28;21335;-63
2022/11/26 05:47:49;;;;;;;7.90;3.10;;;;;;;;;;5039112;28;20209;-64
2022/11/26 05:50:17;;;;;;;4.43;3.00;;;;;;;;;;5054706;28;20339;-63
2022/11/26 05:52:44;;;;;;;8.33;3.27;;;;;;;;;;5056470;28;20317;-63
2022/11/26 05:55:11;;;;;;;7.83;3.40;;;;;;;;;;5043936;28;20799;-64
2022/11/26 05:57:39;;;;;;;6.20;3.60;;;;;;;;;;5046819;28;20297;-64
2022/11/26 06:00:06;;;;;;;12.93;4.43;;;;;;;;;;5040691;28;20796;-63
2022/11/26 06:02:34;;;;;;;7.60;4.03;;;;;;;;;;5042123;28;20261;-64
2022/11/26 06:05:01;;;;;;;6.30;4.07;;;;;;;;;;5055402;28;20226;-63
2022/11/26 06:07:28;;;;;;;8.93;3.50;;;;;;;;;;5038583;28;20283;-63
2022/11/26 06:09:56;;;;;;;7.93;4.17;;;;;;;;;;5031808;28;20898;-63
2022/11/26 06:12:23;;;;;;;7.80;4.07;;;;;;;;;;5060611;28;20305;-63
2022/11/26 06:14:50;;;;;;;9.33;3.90;;;;;;;;;;5039038;28;20757;-64
2022/11/26 06:17:18;;;;;;;9.43;4.00;;;;;;;;;;5041381;28;20288;-63
2022/11/26 06:19:45;;;;;;;8.30;3.57;;;;;;;;;;5044472;28;20229;-63
2022/11/26 06:22:12;;;;;;;7.37;3.70;;;;;;;;;;5042572;28;20217;-64
2022/11/26 06:24:39;;;;;;;8.90;4.10;;;;;;;;;;5034037;28;20225;-63
2022/11/26 06:27:07;;;;;;;8.80;4.23;;;;;;;;;;5040970;28;20928;-64
2022/11/26 06:29:34;;;;;;;10.73;4.37;;;;;;;;;;5044505;28;20212;-63
2022/11/26 06:32:02;;;;;;;6.73;4.00;;;;;;;;;;5043144;28;20197;-64
2022/11/26 06:34:29;;;;;;;7.23;3.93;;;;;;;;;;5039490;28;20467;-63
2022/11/26 06:36:56;;;;;;;9.93;6.00;;;;;;;;;;5038899;28;20312;-63
2022/11/26 06:39:23;;;;;;;11.63;4.37;;;;;;;;;;5036940;28;20293;-63
2022/11/26 06:41:51;;;;;;;8.43;3.93;;;;;;;;;;5037586;28;20285;-62
2022/11/26 06:44:19;;;;;;;15.97;3.80;;;;;;;;;;5041658;28;20340;-62
2022/11/26 06:46:46;;;;;;;8.13;3.87;;;;;;;;;;5039873;28;20710;-62
2022/11/26 06:49:13;;;;;;;5.23;3.37;;;;;;;;;;5046210;28;20850;-64
2022/11/26 06:51:41;;;;;;;10.53;6.70;;;;;;;;;;5043412;28;20211;-64
2022/11/26 06:54:08;;;;;;;58.40;43.23;;;;;;;;;;5050834;28;20206;-64
2022/11/26 06:56:36;;;;;;;44.13;32.90;;;;;;;;;;5041751;28;20305;-62
2022/11/26 06:59:03;;;;;;;23.93;21.33;;;;;;;;;;5056911;28;20665;-62
2022/11/26 07:01:30;;;;;;;10.77;8.47;;;;;;;;;;5040627;28;20289;-64
2022/11/26 07:03:58;;;;;;;8.50;5.47;;;;;;;;;;5030569;28;20312;-62
2022/11/26 07:06:27;;;;;;;8.77;4.63;;;;;;;;;;5042095;28;20257;-62
2022/11/26 07:08:56;;;;;;;5.67;3.10;;;;;;;;;;5051168;28;20292;-64
2022/11/26 07:11:23;;;;;;;6.97;4.60;;;;;;;;;;5044238;28;20228;-62
2022/11/26 07:13:51;;;;;;;8.40;5.10;;;;;;;;;;5047396;28;20694;-63
2022/11/26 07:16:18;;;;;;;10.67;6.70;;;;;;;;;;5043573;28;20598;-62
2022/11/26 07:18:50;;;;;;;10.43;4.43;;;;;;;;;;5032753;28;20226;-61
2022/11/26 07:21:17;;;;;;;6.57;3.43;;;;;;;;;;5027995;28;20263;-63
2022/11/26 07:23:45;;;;;;;6.43;3.30;;;;;;;;;;5059001;28;20316;-63
2022/11/26 07:26:13;;;;;;;6.03;3.20;;;;;;;;;;5037650;28;20232;-63
2022/11/26 07:28:41;;;;;;;6.53;2.77;;;;;;;;;;5036827;28;20739;-65
2022/11/26 07:31:10;;;;;;;9.43;3.17;;;;;;;;;;5031420;28;20274;-62
2022/11/26 07:33:43;;;;;;;10.00;3.13;;;;;;;;;;5037192;28;20220;-62
2022/11/26 07:36:15;;;;;;;9.53;3.40;;;;;;;;;;5035860;28;20213;-62
2022/11/26 07:38:42;;;;;;;6.40;3.10;;;;;;;;;;5027377;28;20735;-63
2022/11/26 07:41:11;;;;;;;6.40;3.37;;;;;;;;;;5035364;28;20244;-62
2022/11/26 07:43:39;;;;;;;6.27;3.80;;;;;;;;;;5036140;28;20368;-63
2022/11/26 07:46:07;;;;;;;7.50;3.37;;;;;;;;;;5035163;28;20332;-62
2022/11/26 07:48:38;;;;;;;10.23;4.30;;;;;;;;;;5022751;28;20214;-63
2022/11/26 07:51:05;;;;;;;9.33;3.90;;;;;;;;;;5029044;28;20289;-63
2022/11/26 07:53:34;;;;;;;4.77;3.20;;;;;;;;;;5033274;28;20308;-63
2022/11/26 07:56:05;;;;;;;7.07;3.60;;;;;;;;;;5019523;28;20300;-62
2022/11/26 07:58:32;;;;;;;9.63;4.00;;;;;;;;;;5028252;28;20283;-63
2022/11/26 08:01:10;;;;;;;11.87;4.20;;;;;;;;;;5020968;28;20213;-62
2022/11/26 08:03:42;;;;;;;7.50;3.60;;;;;;;;;;5015154;28;20370;-62
2022/11/26 08:06:11;;;;;;;7.23;4.20;;;;;;;;;;5018256;28;20258;-61
2022/11/26 08:08:39;;;;;;;11.00;4.70;;;;;;;;;;5007932;28;20205;-61
2022/11/26 08:11:15;;;;;;;7.73;4.50;;;;;;;;;;5021786;28;20271;-62
2022/11/26 08:13:43;;;;;;;6.37;4.27;;;;;;;;;;5034018;28;20233;-62
2022/11/26 08:16:11;;;;;;;4.97;3.33;;;;;;;;;;5013999;28;20205;-61
2022/11/26 08:18:39;;;;;;;9.27;3.67;;;;;;;;;;5028732;28;20580;-63
2022/11/26 08:21:06;;;;;;;4.63;2.70;;;;;;;;;;5038787;28;20371;-63
2022/11/26 08:23:34;;;;;;;3.83;2.53;;;;;;;;;;5018095;28;20229;-63
2022/11/26 08:26:05;;;;;;;6.63;2.63;;;;;;;;;;5023627;28;20225;-62
2022/11/26 08:28:50;;;;;;;3.87;2.77;;;;;;;;;;5017174;28;20213;-61
2022/11/26 08:31:17;;;;;;;5.43;2.40;;;;;;;;;;5006099;28;20238;-62
2022/11/26 08:33:45;;;;;;;4.73;2.40;;;;;;;;;;5019021;28;20980;-63
2022/11/26 08:36:12;;;;;;;3.83;2.37;;;;;;;;;;5039687;28;20300;-64
2022/11/26 08:38:40;;;;;;;6.10;2.40;;;;;;;;;;5028364;28;20252;-63
2022/11/26 08:41:11;;;;;;;2.60;1.93;;;;;;;;;;5030918;28;20237;-63
2022/11/26 08:43:39;;;;;;;4.13;2.07;;;;;;;;;;5042939;28;20340;-63
2022/11/26 08:46:27;;;;;;;7.07;2.40;;;;;;;;;;5035307;28;20226;-63
2022/11/26 08:48:55;;;;;;;2.87;2.30;;;;;;;;;;5052676;28;20671;-62
2022/11/26 08:51:23;;;;;;;6.47;2.20;;;;;;;;;;5036264;28;20210;-63
2022/11/26 08:53:50;;;;;;;5.40;2.17;;;;;;;;;;5051641;28;20248;-63
2022/11/26 08:56:18;;;;;;;5.07;2.20;;;;;;;;;;5035955;28;20237;-63
2022/11/26 08:58:47;;;;;;;4.37;2.60;;;;;;;;;;5028505;28;20300;-63
2022/11/26 09:01:23;;;;;;;4.90;2.50;;;;;;;;;;5029363;28;20209;-63
2022/11/26 09:03:52;;;;;;;2.57;2.20;;;;;;;;;;5032306;28;20235;-64
2022/11/26 09:06:20;;;;;;;5.27;2.27;;;;;;;;;;5030556;28;20253;-63
2022/11/26 09:11:37;;;;;;;6.30;2.17;;;;;;;;;;5040343;28;20297;-63
2022/11/26 09:14:04;;;;;;;6.90;2.17;;;;;;;;;;5029007;28;20345;-63
2022/11/26 09:16:32;;;;;;;4.60;2.53;;;;;;;;;;5024257;28;20204;-62
2022/11/26 09:19:00;;;;;;;5.40;2.67;;;;;;;;;;5036233;28;20209;-63
2022/11/26 09:21:27;;;;;;;5.43;2.83;;;;;;;;;;5035634;28;20934;-63
2022/11/26 09:23:55;;;;;;;6.50;2.63;;;;;;;;;;5034365;28;20233;-63
2022/11/26 09:26:24;;;;;;;4.97;3.13;;;;;;;;;;5024945;28;20378;-63
2022/11/26 09:28:51;;;;;;;5.70;2.60;;;;;;;;;;5010917;28;20307;-63
2022/11/26 09:31:19;;;;;;;4.37;2.83;;;;;;;;;;5020175;28;20229;-63
2022/11/26 09:33:46;;;;;;;5.70;2.80;;;;;;;;;;5046705;28;20424;-62
2022/11/26 09:36:15;;;;;;;6.33;3.00;;;;;;;;;;5036017;28;20299;-63
2022/11/26 09:38:44;;;;;;;6.13;2.20;;;;;;;;;;5027565;28;20205;-63
2022/11/26 09:41:11;;;;;;;7.37;3.23;;;;;;;;;;5036243;28;20289;-63
2022/11/26 09:44:00;;;;;;;6.97;3.20;;;;;;;;;;5036865;28;20283;-63
2022/11/26 09:46:42;;;;;;;6.90;4.13;;;;;;;;;;5039778;28;20323;-63
2022/11/26 09:49:33;;;;;;;7.10;3.77;;;;;;;;;;5028779;28;20211;-62
2022/11/26 09:52:00;;;;;;;11.93;5.10;;;;;;;;;;5036576;28;20216;-64
2022/11/26 09:54:29;;;;;;;3.13;2.20;;;;;;;;;;5016695;28;20209;-62
2022/11/26 09:57:16;;;;;;;4.27;2.00;;;;;;;;;;5025661;28;20300;-63
2022/11/26 09:59:45;;;;;;;4.70;1.93;;;;;;;;;;5046772;28;20855;-63
2022/11/26 10:02:16;;;;;;;3.60;1.70;;;;;;;;;;5018145;28;20232;-63
2022/11/26 10:04:48;;;;;;;3.07;1.80;;;;;;;;;;5043357;28;20335;-62
2022/11/26 10:07:18;;;;;;;5.63;1.90;;;;;;;;;;5025480;28;20245;-62
2022/11/26 10:10:05;;;;;;;3.40;1.80;;;;;;;;;;5017117;28;20212;-63
2022/11/26 10:12:50;;;;;;;6.57;1.90;;;;;;;;;;5034600;28;20324;-63
2022/11/26 10:15:40;;;;;;;4.30;1.50;;;;;;;;;;5033022;28;20212;-64
2022/11/26 10:18:19;;;;;;;3.43;1.50;;;;;;;;;;5036393;28;20485;-64
2022/11/26 10:21:02;;;;;;;5.17;2.07;;;;;;;;;;5032966;28;20312;-63
2022/11/26 10:23:29;;;;;;;5.97;2.30;;;;;;;;;;5043458;28;20233;-63
2022/11/26 10:26:17;;;;;;;4.80;1.70;;;;;;;;;;5035027;28;20678;-64
2022/11/26 10:28:46;;;;;;;3.60;1.40;;;;;;;;;;5036438;28;20689;-62
2022/11/26 10:31:24;;;;;;;4.13;1.60;;;;;;;;;;5023862;28;20198;-62
2022/11/26 10:34:00;;;;;;;3.33;1.50;;;;;;;;;;5023436;28;20233;-62
2022/11/26 10:36:41;;;;;;;6.50;1.80;;;;;;;;;;5017127;28;20319;-62
2022/11/26 10:39:12;;;;;;;2.93;1.50;;;;;;;;;;5013702;28;20209;-62
2022/11/26 10:41:40;;;;;;;4.00;1.90;;;;;;;;;;5010776;28;20208;-61
2022/11/26 10:44:26;;;;;;;5.17;1.50;;;;;;;;;;5018501;28;20236;-64
2022/11/26 10:46:54;;;;;;;11.70;1.70;;;;;;;;;;5014362;28;20653;-63
2022/11/26 10:49:22;;;;;;;4.20;1.37;;;;;;;;;;5010927;28;20210;-63
2022/11/26 10:51:50;;;;;;;5.00;1.60;;;;;;;;;;5041773;28;20215;-63
2022/11/26 10:54:29;;;;;;;4.80;1.43;;;;;;;;;;5034551;28;20201;-62
2022/11/26 10:57:01;;;;;;;3.93;1.53;;;;;;;;;;5029891;28;20241;-63
2022/11/26 10:59:35;;;;;;;4.40;1.63;;;;;;;;;;5027177;28;20213;-63
2022/11/26 11:02:05;;;;;;;4.40;1.37;;;;;;;;;;5013571;28;20296;-63
2022/11/26 11:04:36;;;;;;;5.47;1.73;;;;;;;;;;5028036;28;20309;-63
2022/11/26 11:07:03;;;;;;;5.67;1.63;;;;;;;;;;5034528;28;20358;-62
2022/11/26 11:09:41;;;;;;;5.17;1.53;;;;;;;;;;5017558;28;20221;-63
2022/11/26 11:12:11;;;;;;;6.07;1.43;;;;;;;;;;5024842;28;20787;-62
2022/11/26 11:14:39;;;;;;;6.20;1.50;;;;;;;;;;5021629;28;20328;-63
2022/11/26 11:17:24;;;;;;;2.53;1.17;;;;;;;;;;5026355;28;20781;-62
2022/11/26 11:19:53;;;;;;;3.80;1.40;;;;;;;;;;5008057;28;20215;-63
2022/11/26 11:22:21;;;;;;;2.63;1.40;;;;;;;;;;5031177;28;20244;-62
2022/11/26 11:24:49;;;;;;;2.03;1.30;;;;;;;;;;5011682;28;20298;-63
2022/11/26 11:27:24;;;;;;;3.20;1.27;;;;;;;;;;5011202;28;20237;-62
2022/11/26 11:29:52;;;;;;;3.67;1.40;;;;;;;;;;5023037;28;20525;-63
2022/11/26 11:32:33;;;;;;;3.20;1.67;;;;;;;;;;5006772;28;20742;-63
2022/11/26 11:35:19;;;;;;;7.50;1.77;;;;;;;;;;5013916;28;20228;-63
2022/11/26 11:37:47;;;;;;;4.97;1.70;;;;;;;;;;4995355;28;20214;-62
2022/11/26 11:40:19;;;;;;;5.53;1.40;;;;;;;;;;5000402;28;20214;-64
2022/11/26 11:42:50;;;;;;;3.30;1.53;;;;;;;;;;5014416;28;20324;-63
2022/11/26 11:45:22;;;;;;;6.87;1.50;;;;;;;;;;5014997;28;20289;-63
2022/11/26 11:47:56;;;;;;;3.40;1.90;;;;;;;;;;5016299;28;20218;-63
2022/11/26 11:50:30;;;;;;;3.00;1.40;;;;;;;;;;5035637;28;20257;-62
2022/11/26 11:53:03;;;;;;;4.50;1.60;;;;;;;;;;5037045;28;20281;-63
2022/11/26 11:55:50;;;;;;;4.33;1.50;;;;;;;;;;5007900;28;20445;-63
2022/11/26 11:58:26;;;;;;;5.17;2.20;;;;;;;;;;5012113;28;20205;-63
2022/11/26 12:01:12;;;;;;;3.73;1.73;;;;;;;;;;5025873;28;20666;-63
2022/11/26 12:03:52;;;;;;;4.43;1.37;;;;;;;;;;5030326;28;21911;-62
2022/11/26 12:06:39;;;;;;;5.50;1.50;;;;;;;;;;5039642;28;20229;-63
2022/11/26 12:09:14;;;;;;;4.17;1.17;;;;;;;;;;5032059;28;23601;-63
2022/11/26 12:11:54;;;;;;;4.47;1.63;;;;;;;;;;5029630;28;20392;-63
2022/11/26 12:14:24;;;;;;;5.73;1.93;;;;;;;;;;5035922;28;20263;-62
2022/11/26 12:16:55;;;;;;;6.47;1.70;;;;;;;;;;5044713;28;20920;-62
2022/11/26 12:19:38;;;;;;;3.80;1.50;;;;;;;;;;5039024;28;20233;-63
2022/11/26 12:22:13;;;;;;;3.17;1.43;;;;;;;;;;5036719;28;20367;-63
2022/11/26 12:24:57;;;;;;;3.17;1.23;;;;;;;;;;5029767;28;20262;-63
2022/11/26 12:27:33;;;;;;;4.53;1.90;;;;;;;;;;5016753;28;20299;-63
2022/11/26 12:30:14;;;;;;;3.50;1.40;;;;;;;;;;5033506;28;20320;-63
2022/11/26 12:32:54;;;;;;;3.50;1.30;;;;;;;;;;5017974;28;20225;-62
2022/11/26 12:35:29;;;;;;;2.83;1.30;;;;;;;;;;5037073;28;20304;-62
2022/11/26 12:37:59;;;;;;;3.67;1.50;;;;;;;;;;5044822;28;20236;-63
2022/11/26 12:40:35;;;;;;;5.90;1.17;;;;;;;;;;5028162;28;21052;-64
2022/11/26 12:43:12;;;;;;;3.50;1.30;;;;;;;;;;5024117;28;20242;-63
2022/11/26 12:45:48;;;;;;;5.27;1.53;;;;;;;;;;5026844;28;20221;-61
2022/11/26 12:48:26;;;;;;;4.30;1.40;;;;;;;;;;5040332;28;20214;-61
2022/11/26 12:51:00;;;;;;;3.27;1.40;;;;;;;;;;5054781;28;20216;-61
2022/11/26 12:53:33;;;;;;;4.13;1.70;;;;;;;;;;5038943;28;20261;-61
2022/11/26 12:56:16;;;;;;;4.90;2.10;;;;;;;;;;5030787;28;20411;-61
2022/11/26 12:58:46;;;;;;;4.10;2.00;;;;;;;;;;5043506;28;20248;-61
2022/11/26 13:01:14;;;;;;;9.07;2.77;;;;;;;;;;5025622;28;20275;-62
2022/11/26 13:03:41;;;;;;;5.97;2.87;;;;;;;;;;5026657;28;20218;-63
2022/11/26 13:06:31;;;;;;;4.50;2.50;;;;;;;;;;5023785;28;20234;-63
2022/11/26 13:09:12;;;;;;;3.53;2.03;;;;;;;;;;5035558;28;21620;-63
2022/11/26 13:11:49;;;;;;;3.77;1.50;;;;;;;;;;5036477;28;20823;-63
2022/11/26 13:14:34;;;;;;;4.97;2.17;;;;;;;;;;5033815;28;20197;-63
2022/11/26 13:17:15;;;;;;;5.70;1.80;;;;;;;;;;5020029;28;21419;-62
2022/11/26 13:19:49;;;;;;;5.13;1.80;;;;;;;;;;5025617;28;20300;-63
2022/11/26 13:22:34;;;;;;;6.97;2.03;;;;;;;;;;5048980;28;20316;-62
2022/11/26 13:25:20;;;;;;;4.83;1.30;;;;;;;;;;5036516;28;20827;-63
2022/11/26 13:27:53;;;;;;;4.43;1.20;;;;;;;;;;5029554;28;20227;-62
2022/11/26 13:30:24;;;;;;;5.77;1.67;;;;;;;;;;5024570;28;22210;-61
2022/11/26 13:32:58;;;;;;;7.30;1.60;;;;;;;;;;5032481;28;20718;-62
2022/11/26 13:35:35;;;;;;;4.83;2.00;;;;;;;;;;5018574;28;20283;-64
2022/11/26 13:38:18;;;;;;;4.57;1.40;;;;;;;;;;5023454;28;20229;-63
2022/11/26 13:40:48;;;;;;;4.53;1.40;;;;;;;;;;5025701;28;20347;-61
2022/11/26 13:43:39;;;;;;;5.73;1.70;;;;;;;;;;5030408;28;20225;-62
2022/11/26 13:46:18;;;;;;;6.30;2.10;;;;;;;;;;5023750;28;20217;-63
2022/11/26 13:49:07;;;;;;;5.27;1.63;;;;;;;;;;5040995;28;20205;-64
2022/11/26 13:51:42;;;;;;;4.30;1.83;;;;;;;;;;5022679;28;20290;-62
2022/11/26 13:54:19;;;;;;;2.10;1.40;;;;;;;;;;5027165;28;20324;-62
2022/11/26 13:56:48;;;;;;;4.97;1.77;;;;;;;;;;5049805;28;20766;-62
2022/11/26 13:59:23;;;;;;;4.63;1.60;;;;;;;;;;5019152;28;20214;-62
2022/11/26 14:01:55;;;;;;;2.97;1.70;;;;;;;;;;5024721;28;20216;-63
2022/11/26 14:04:22;;;;;;;9.93;4.53;;;;;;;;;;5040582;28;20318;-63
2022/11/26 14:07:05;;;;;;;5.93;3.00;;;;;;;;;;5035696;28;20247;-62
2022/11/26 14:09:45;;;;;;;4.73;1.60;;;;;;;;;;5035811;28;20328;-62
2022/11/26 14:12:14;;;;;;;4.20;1.43;;;;;;;;;;5022628;28;20724;-63
2022/11/26 14:14:42;;;;;;;5.10;1.50;;;;;;;;;;5023832;28;20225;-62
2022/11/26 14:17:10;;;;;;;4.20;1.97;;;;;;;;;;5015019;28;20213;-63
2022/11/26 14:19:41;;;;;;;4.63;1.80;;;;;;;;;;5006883;28;20303;-61
2022/11/26 14:22:08;;;;;;;1.93;1.40;;;;;;;;;;5005885;28;20312;-62
2022/11/26 14:25:05;;;;;;;4.73;1.80;;;;;;;;;;5020749;28;20906;-62
2022/11/26 14:27:33;;;;;;;4.80;1.90;;;;;;;;;;5038263;28;20251;-63
2022/11/26 14:30:06;;;;;;;5.97;2.07;;;;;;;;;;5029266;28;20347;-62
2022/11/26 14:32:44;;;;;;;5.63;2.00;;;;;;;;;;5034715;28;20225;-65
2022/11/26 14:35:32;;;;;;;9.50;3.60;;;;;;;;;;5031990;28;20618;-63
2022/11/26 14:38:02;;;;;;;20.23;10.97;;;;;;;;;;5015861;28;20344;-63
2022/11/26 14:40:30;;;;;;;20.17;9.27;;;;;;;;;;5059695;28;20874;-63
2022/11/26 14:43:08;;;;;;;9.93;4.73;;;;;;;;;;5019578;28;20236;-62
2022/11/26 14:45:36;;;;;;;7.80;3.57;;;;;;;;;;5021334;28;20208;-62
2022/11/26 14:48:04;;;;;;;6.30;1.83;;;;;;;;;;5043622;28;20316;-63
2022/11/26 14:50:32;;;;;;;6.33;1.80;;;;;;;;;;5035866;28;20255;-63
2022/11/26 14:53:04;;;;;;;7.10;2.00;;;;;;;;;;5009656;28;21196;-61
2022/11/26 14:55:32;;;;;;;4.10;1.60;;;;;;;;;;5008214;28;20324;-63
2022/11/26 14:57:59;;;;;;;3.93;1.60;;;;;;;;;;5003632;28;20223;-62
2022/11/26 15:00:34;;;;;;;5.70;2.10;;;;;;;;;;4999618;28;20234;-62
2022/11/26 15:03:02;;;;;;;8.20;3.27;;;;;;;;;;5004830;28;22456;-63
2022/11/26 15:05:35;;;;;;;7.47;3.87;;;;;;;;;;5003219;28;20729;-62
2022/11/26 15:08:18;;;;;;;9.77;4.10;;;;;;;;;;5001687;28;20218;-62